createdAt,value
2017-04-17T00:00:34.446Z,997.4
2017-04-17T00:01:34.468Z,997.46
2017-04-17T00:02:34.499Z,997.39
2017-04-17T00:03:34.523Z,997.4
2017-04-17T00:04:34.551Z,997.4
2017-04-17T00:05:34.575Z,997.4
2017-04-17T00:06:34.604Z,997.39
2017-04-17T00:07:34.633Z,997.37
2017-04-17T00:08:34.658Z,997.35
2017-04-17T00:09:34.685Z,997.36
2017-04-17T00:10:34.710Z,997.33
2017-04-17T00:11:34.739Z,997.34
2017-04-17T00:12:34.773Z,997.35
2017-04-17T00:13:34.794Z,997.38
2017-04-17T00:14:34.821Z,997.35
2017-04-17T00:15:34.846Z,997.33
2017-04-17T00:16:34.880Z,997.32
2017-04-17T00:17:34.896Z,997.32
2017-04-17T00:18:34.930Z,997.28
2017-04-17T00:19:34.958Z,997.31
2017-04-17T00:20:34.984Z,997.24
2017-04-17T00:21:35.011Z,997.22
2017-04-17T00:22:35.032Z,997.25
2017-04-17T00:23:35.061Z,997.18
2017-04-17T00:24:35.090Z,997.19
2017-04-17T00:25:35.122Z,997.17
2017-04-17T00:26:35.148Z,997.18
2017-04-17T00:27:35.172Z,997.14
2017-04-17T00:28:35.198Z,997.15
2017-04-17T00:29:35.223Z,997.11
2017-04-17T00:30:35.254Z,997.14
2017-04-17T00:31:35.280Z,997.12
2017-04-17T00:32:35.304Z,997.11
2017-04-17T00:33:35.336Z,997.12
2017-04-17T00:34:35.360Z,997.07
2017-04-17T00:35:35.388Z,997.04
2017-04-17T00:36:35.413Z,997.01
2017-04-17T00:37:35.442Z,996.99
2017-04-17T00:38:35.468Z,996.97
2017-04-17T00:39:35.497Z,996.97
2017-04-17T00:40:35.522Z,996.92
2017-04-17T00:41:35.550Z,996.96
2017-04-17T00:42:35.581Z,996.91
2017-04-17T00:43:35.604Z,996.93
2017-04-17T00:44:35.633Z,996.87
2017-04-17T00:45:35.656Z,996.9
2017-04-17T00:46:35.686Z,996.99
2017-04-17T00:47:35.712Z,996.97
2017-04-17T00:48:35.739Z,996.92
2017-04-17T00:49:35.769Z,996.93
2017-04-17T00:50:35.790Z,996.9
2017-04-17T00:51:35.822Z,996.85
2017-04-17T00:52:35.847Z,996.87
2017-04-17T00:53:35.875Z,996.83
2017-04-17T00:54:35.900Z,996.79
2017-04-17T00:55:35.929Z,996.75
2017-04-17T00:56:35.959Z,996.78
2017-04-17T00:57:35.979Z,996.79
2017-04-17T00:58:36.007Z,996.75
2017-04-17T00:59:36.050Z,996.73
2017-04-17T01:00:36.064Z,996.73
2017-04-17T01:01:36.104Z,996.74
2017-04-17T01:02:36.125Z,996.75
2017-04-17T01:03:36.157Z,996.77
2017-04-17T01:04:36.172Z,996.77
2017-04-17T01:05:36.210Z,996.7
2017-04-17T01:06:36.225Z,996.74
2017-04-17T01:07:36.250Z,996.71
2017-04-17T01:08:36.292Z,996.72
2017-04-17T01:09:36.306Z,996.7
2017-04-17T01:10:36.332Z,996.67
2017-04-17T01:11:36.361Z,996.64
2017-04-17T01:12:36.387Z,996.66
2017-04-17T01:13:36.411Z,996.66
2017-04-17T01:14:36.440Z,996.6
2017-04-17T01:15:36.469Z,996.65
2017-04-17T01:16:36.494Z,996.61
2017-04-17T01:17:36.521Z,996.61
2017-04-17T01:18:36.555Z,996.65
2017-04-17T01:19:36.575Z,996.6
2017-04-17T01:20:36.604Z,996.59
2017-04-17T01:21:36.629Z,996.57
2017-04-17T01:22:36.658Z,996.57
2017-04-17T01:23:36.683Z,996.57
2017-04-17T01:24:36.706Z,996.55
2017-04-17T01:25:36.735Z,996.54
2017-04-17T01:26:36.765Z,996.49
2017-04-17T01:27:36.791Z,996.47
2017-04-17T01:28:36.819Z,996.44
2017-04-17T01:29:36.844Z,996.38
2017-04-17T01:30:36.873Z,996.42
2017-04-17T01:31:36.897Z,996.4
2017-04-17T01:32:36.926Z,996.39
2017-04-17T01:33:36.957Z,996.4
2017-04-17T01:34:36.975Z,996.39
2017-04-17T01:35:37.008Z,996.36
2017-04-17T01:36:37.032Z,996.3
2017-04-17T01:37:37.056Z,996.23
2017-04-17T01:38:37.086Z,996.21
2017-04-17T01:39:37.115Z,996.21
2017-04-17T01:40:37.139Z,996.21
2017-04-17T01:41:37.167Z,996.19
2017-04-17T01:42:37.190Z,996.16
2017-04-17T01:43:37.223Z,996.16
2017-04-17T01:44:37.248Z,996.13
2017-04-17T01:45:37.270Z,996.08
2017-04-17T01:46:37.300Z,996.1
2017-04-17T01:47:37.329Z,996.08
2017-04-17T01:48:37.356Z,996.12
2017-04-17T01:49:37.382Z,996.08
2017-04-17T01:50:37.410Z,996.08
2017-04-17T01:51:37.435Z,996.08
2017-04-17T01:52:37.460Z,996.04
2017-04-17T01:53:37.490Z,996.05
2017-04-17T01:54:37.516Z,996.04
2017-04-17T01:55:37.543Z,996.08
2017-04-17T01:56:37.572Z,996.09
2017-04-17T01:57:37.595Z,996.12
2017-04-17T01:58:37.624Z,996.05
2017-04-17T01:59:37.649Z,996.06
2017-04-17T02:00:37.674Z,996.04
2017-04-17T02:01:37.703Z,996.06
2017-04-17T02:02:37.732Z,996.05
2017-04-17T02:03:37.757Z,996.02
2017-04-17T02:04:37.784Z,996.01
2017-04-17T02:05:37.814Z,996.03
2017-04-17T02:06:37.839Z,995.99
2017-04-17T02:07:37.864Z,996.04
2017-04-17T02:08:37.893Z,996.03
2017-04-17T02:09:37.918Z,996.01
2017-04-17T02:10:38.198Z,996.03
2017-04-17T02:11:37.970Z,996.04
2017-04-17T02:12:38.005Z,995.97
2017-04-17T02:13:38.024Z,995.98
2017-04-17T02:14:38.054Z,995.97
2017-04-17T02:15:38.329Z,995.99
2017-04-17T02:16:38.111Z,995.93
2017-04-17T02:17:38.136Z,995.94
2017-04-17T02:18:38.191Z,995.9
2017-04-17T02:19:38.189Z,995.93
2017-04-17T02:20:38.464Z,995.84
2017-04-17T02:21:38.234Z,995.88
2017-04-17T02:22:38.266Z,995.85
2017-04-17T02:23:38.296Z,995.82
2017-04-17T02:24:38.328Z,995.81
2017-04-17T02:25:38.600Z,995.81
2017-04-17T02:26:38.374Z,995.79
2017-04-17T02:27:38.403Z,995.79
2017-04-17T02:28:38.427Z,995.76
2017-04-17T02:29:38.459Z,995.76
2017-04-17T02:30:38.480Z,995.7
2017-04-17T02:31:38.509Z,995.69
2017-04-17T02:32:38.535Z,995.68
2017-04-17T02:33:38.562Z,995.66
2017-04-17T02:34:38.587Z,995.63
2017-04-17T02:35:38.616Z,995.63
2017-04-17T02:36:38.642Z,995.55
2017-04-17T02:37:38.670Z,995.56
2017-04-17T02:38:38.699Z,995.54
2017-04-17T02:39:38.724Z,995.54
2017-04-17T02:40:38.748Z,995.51
2017-04-17T02:41:38.781Z,995.46
2017-04-17T02:42:38.806Z,995.45
2017-04-17T02:43:38.831Z,995.47
2017-04-17T02:44:38.856Z,995.46
2017-04-17T02:45:38.884Z,995.4
2017-04-17T02:46:38.913Z,995.38
2017-04-17T02:47:38.935Z,995.35
2017-04-17T02:48:38.969Z,995.35
2017-04-17T02:49:38.992Z,995.34
2017-04-17T02:50:39.016Z,995.33
2017-04-17T02:51:39.045Z,995.33
2017-04-17T02:52:39.070Z,995.31
2017-04-17T02:53:39.099Z,995.31
2017-04-17T02:54:39.124Z,995.28
2017-04-17T02:55:39.152Z,995.31
2017-04-17T02:56:39.181Z,995.25
2017-04-17T02:57:39.206Z,995.2
2017-04-17T02:58:39.231Z,995.2
2017-04-17T02:59:39.259Z,995.22
2017-04-17T03:00:39.287Z,995.2
2017-04-17T03:01:39.309Z,995.21
2017-04-17T03:02:39.346Z,995.23
2017-04-17T03:03:39.366Z,995.22
2017-04-17T03:04:39.394Z,995.18
2017-04-17T03:05:39.420Z,995.21
2017-04-17T03:06:39.448Z,995.14
2017-04-17T03:07:39.473Z,995.17
2017-04-17T03:08:39.497Z,995.12
2017-04-17T03:09:39.526Z,995.09
2017-04-17T03:10:39.555Z,995.05
2017-04-17T03:11:39.580Z,995.07
2017-04-17T03:12:39.604Z,995.12
2017-04-17T03:13:39.629Z,995.15
2017-04-17T03:14:39.661Z,995.19
2017-04-17T03:15:39.687Z,995.17
2017-04-17T03:16:39.707Z,995.18
2017-04-17T03:17:39.741Z,995.19
2017-04-17T03:18:39.761Z,995.18
2017-04-17T03:19:39.794Z,995.12
2017-04-17T03:20:39.818Z,995.17
2017-04-17T03:21:39.843Z,995.09
2017-04-17T03:22:39.876Z,995.13
2017-04-17T03:23:39.901Z,995.13
2017-04-17T03:24:39.926Z,995.16
2017-04-17T03:25:39.956Z,995.1
2017-04-17T03:26:39.982Z,995.15
2017-04-17T03:27:40.008Z,995.12
2017-04-17T03:28:40.033Z,995.04
2017-04-17T03:29:40.057Z,995.08
2017-04-17T03:30:40.087Z,995.05
2017-04-17T03:31:40.116Z,995.05
2017-04-17T03:32:40.136Z,995.02
2017-04-17T03:33:40.169Z,995.07
2017-04-17T03:34:40.189Z,995.03
2017-04-17T03:35:40.221Z,995.02
2017-04-17T03:36:40.247Z,995
2017-04-17T03:37:40.276Z,995.06
2017-04-17T03:38:40.300Z,995.01
2017-04-17T03:39:40.329Z,995.02
2017-04-17T03:40:40.354Z,995.02
2017-04-17T03:41:40.383Z,994.98
2017-04-17T03:42:40.404Z,994.88
2017-04-17T03:43:40.432Z,994.84
2017-04-17T03:44:40.461Z,994.78
2017-04-17T03:45:40.490Z,994.72
2017-04-17T03:46:40.515Z,994.7
2017-04-17T03:47:40.543Z,994.69
2017-04-17T03:48:40.567Z,994.68
2017-04-17T03:49:40.593Z,994.63
2017-04-17T03:50:40.617Z,994.66
2017-04-17T03:51:40.650Z,994.63
2017-04-17T03:52:40.674Z,994.57
2017-04-17T03:53:40.695Z,994.57
2017-04-17T03:54:40.724Z,994.61
2017-04-17T03:55:40.748Z,994.59
2017-04-17T03:56:40.781Z,994.65
2017-04-17T03:57:40.808Z,994.67
2017-04-17T03:58:40.842Z,994.65
2017-04-17T03:59:40.860Z,994.68
2017-04-17T04:00:40.889Z,994.63
2017-04-17T04:01:40.913Z,994.61
2017-04-17T04:02:40.943Z,994.61
2017-04-17T04:03:40.963Z,994.61
2017-04-17T04:04:40.995Z,994.53
2017-04-17T04:05:41.022Z,994.53
2017-04-17T04:06:41.302Z,994.5
2017-04-17T04:07:41.074Z,994.52
2017-04-17T04:08:41.103Z,994.49
2017-04-17T04:09:41.127Z,994.47
2017-04-17T04:10:41.156Z,994.46
2017-04-17T04:11:41.432Z,994.47
2017-04-17T04:12:41.211Z,994.43
2017-04-17T04:13:41.235Z,994.47
2017-04-17T04:14:41.263Z,994.46
2017-04-17T04:15:41.288Z,994.45
2017-04-17T04:16:41.569Z,994.46
2017-04-17T04:17:41.342Z,994.41
2017-04-17T04:18:41.372Z,994.41
2017-04-17T04:19:41.396Z,994.35
2017-04-17T04:20:41.424Z,994.34
2017-04-17T04:21:41.701Z,994.32
2017-04-17T04:22:41.474Z,994.33
2017-04-17T04:23:41.502Z,994.28
2017-04-17T04:24:41.531Z,994.3
2017-04-17T04:25:41.556Z,994.23
2017-04-17T04:26:41.581Z,994.29
2017-04-17T04:27:41.609Z,994.27
2017-04-17T04:28:41.635Z,994.22
2017-04-17T04:29:41.659Z,994.25
2017-04-17T04:30:41.688Z,994.26
2017-04-17T04:31:41.717Z,994.32
2017-04-17T04:32:41.737Z,994.33
2017-04-17T04:33:41.770Z,994.31
2017-04-17T04:34:41.798Z,994.32
2017-04-17T04:35:41.823Z,994.34
2017-04-17T04:36:41.846Z,994.34
2017-04-17T04:37:41.873Z,994.32
2017-04-17T04:38:41.902Z,994.3
2017-04-17T04:39:41.931Z,994.3
2017-04-17T04:40:41.951Z,994.32
2017-04-17T04:41:41.980Z,994.26
2017-04-17T04:42:42.005Z,994.24
2017-04-17T04:43:42.033Z,994.22
2017-04-17T04:44:42.061Z,994.2
2017-04-17T04:45:42.087Z,994.26
2017-04-17T04:46:42.116Z,994.25
2017-04-17T04:47:42.140Z,994.25
2017-04-17T04:48:42.169Z,994.23
2017-04-17T04:49:42.193Z,994.22
2017-04-17T04:50:42.222Z,994.2
2017-04-17T04:51:42.247Z,994.25
2017-04-17T04:52:42.277Z,994.17
2017-04-17T04:53:42.299Z,994.21
2017-04-17T04:54:42.329Z,994.22
2017-04-17T04:55:42.354Z,994.18
2017-04-17T04:56:42.379Z,994.18
2017-04-17T04:57:42.407Z,994.27
2017-04-17T04:58:42.428Z,994.22
2017-04-17T04:59:42.458Z,994.27
2017-04-17T05:00:42.487Z,994.25
2017-04-17T05:01:42.515Z,994.26
2017-04-17T05:02:42.539Z,994.25
2017-04-17T05:03:42.568Z,994.25
2017-04-17T05:04:42.593Z,994.23
2017-04-17T05:05:42.622Z,994.26
2017-04-17T05:06:42.647Z,994.23
2017-04-17T05:07:42.675Z,994.27
2017-04-17T05:08:42.705Z,994.27
2017-04-17T05:09:42.729Z,994.27
2017-04-17T05:10:42.754Z,994.21
2017-04-17T05:11:42.783Z,994.19
2017-04-17T05:12:42.807Z,994.14
2017-04-17T05:13:42.833Z,994.15
2017-04-17T05:14:42.858Z,994.18
2017-04-17T05:15:42.890Z,994.19
2017-04-17T05:16:42.916Z,994.19
2017-04-17T05:17:42.940Z,994.17
2017-04-17T05:18:42.968Z,994.24
2017-04-17T05:19:43.000Z,994.22
2017-04-17T05:20:43.021Z,994.19
2017-04-17T05:21:43.046Z,994.13
2017-04-17T05:22:43.074Z,994.12
2017-04-17T05:23:43.103Z,994.09
2017-04-17T05:24:43.129Z,994.06
2017-04-17T05:25:43.154Z,994.05
2017-04-17T05:26:43.181Z,994.04
2017-04-17T05:27:43.211Z,993.98
2017-04-17T05:28:43.236Z,994.02
2017-04-17T05:29:43.260Z,994.01
2017-04-17T05:30:43.288Z,993.98
2017-04-17T05:31:43.312Z,993.97
2017-04-17T05:32:43.340Z,993.91
2017-04-17T05:33:43.364Z,993.94
2017-04-17T05:34:43.393Z,993.94
2017-04-17T05:35:43.417Z,993.94
2017-04-17T05:36:43.449Z,993.96
2017-04-17T05:37:43.478Z,993.95
2017-04-17T05:38:43.503Z,994
2017-04-17T05:39:43.531Z,994.04
2017-04-17T05:40:43.556Z,994.05
2017-04-17T05:41:43.586Z,994.05
2017-04-17T05:42:43.610Z,994.01
2017-04-17T05:43:43.638Z,993.95
2017-04-17T05:44:43.663Z,993.97
2017-04-17T05:45:43.691Z,993.93
2017-04-17T05:46:43.717Z,993.95
2017-04-17T05:47:43.747Z,993.95
2017-04-17T05:48:43.775Z,993.97
2017-04-17T05:49:43.802Z,993.91
2017-04-17T05:50:43.824Z,993.95
2017-04-17T05:51:43.852Z,993.91
2017-04-17T05:52:43.881Z,993.93
2017-04-17T05:53:43.907Z,993.93
2017-04-17T05:54:43.936Z,993.95
2017-04-17T05:55:43.961Z,993.95
2017-04-17T05:56:43.989Z,993.88
2017-04-17T05:57:44.013Z,993.89
2017-04-17T05:58:44.043Z,993.92
2017-04-17T05:59:44.067Z,993.91
2017-04-17T06:00:44.096Z,993.9
2017-04-17T06:01:44.116Z,993.88
2017-04-17T06:02:44.400Z,993.85
2017-04-17T06:03:44.179Z,993.82
2017-04-17T06:04:44.203Z,993.84
2017-04-17T06:05:44.230Z,993.81
2017-04-17T06:06:44.256Z,993.79
2017-04-17T06:07:44.533Z,993.79
2017-04-17T06:08:44.309Z,993.76
2017-04-17T06:09:44.339Z,993.75
2017-04-17T06:10:44.367Z,993.76
2017-04-17T06:11:44.392Z,993.8
2017-04-17T06:12:44.675Z,993.77
2017-04-17T06:13:44.446Z,993.76
2017-04-17T06:14:44.474Z,993.74
2017-04-17T06:15:44.500Z,993.7
2017-04-17T06:16:44.524Z,993.68
2017-04-17T06:17:44.553Z,993.66
2017-04-17T06:18:44.581Z,993.7
2017-04-17T06:19:44.606Z,993.69
2017-04-17T06:20:44.635Z,993.67
2017-04-17T06:21:44.664Z,993.65
2017-04-17T06:22:44.684Z,993.66
2017-04-17T06:23:44.730Z,993.68
2017-04-17T06:24:44.742Z,993.66
2017-04-17T06:25:44.770Z,993.61
2017-04-17T06:26:44.796Z,993.65
2017-04-17T06:27:44.824Z,993.7
2017-04-17T06:28:44.854Z,993.7
2017-04-17T06:29:44.878Z,993.69
2017-04-17T06:30:44.907Z,993.7
2017-04-17T06:31:44.931Z,993.7
2017-04-17T06:32:44.960Z,993.72
2017-04-17T06:33:44.987Z,993.69
2017-04-17T06:34:45.013Z,993.75
2017-04-17T06:35:45.039Z,993.69
2017-04-17T06:36:45.068Z,993.73
2017-04-17T06:37:45.092Z,993.74
2017-04-17T06:38:45.121Z,993.7
2017-04-17T06:39:45.149Z,993.7
2017-04-17T06:40:45.178Z,993.66
2017-04-17T06:41:45.199Z,993.65
2017-04-17T06:42:45.228Z,993.69
2017-04-17T06:43:45.258Z,993.62
2017-04-17T06:44:45.285Z,993.63
2017-04-17T06:45:45.329Z,993.64
2017-04-17T06:46:45.339Z,993.59
2017-04-17T06:47:45.364Z,993.64
2017-04-17T06:48:45.393Z,993.58
2017-04-17T06:49:45.415Z,993.56
2017-04-17T06:50:45.445Z,993.52
2017-04-17T06:51:45.474Z,993.58
2017-04-17T06:52:45.499Z,993.51
2017-04-17T06:53:45.529Z,993.5
2017-04-17T06:54:45.553Z,993.44
2017-04-17T06:55:45.581Z,993.4
2017-04-17T06:56:45.608Z,993.41
2017-04-17T06:57:45.639Z,993.4
2017-04-17T06:58:45.664Z,993.45
2017-04-17T06:59:45.692Z,993.44
2017-04-17T07:00:45.738Z,993.41
2017-04-17T07:01:45.743Z,993.38
2017-04-17T07:02:45.775Z,993.35
2017-04-17T07:03:45.799Z,993.35
2017-04-17T07:04:45.828Z,993.32
2017-04-17T07:05:45.853Z,993.29
2017-04-17T07:06:45.882Z,993.32
2017-04-17T07:07:45.907Z,993.3
2017-04-17T07:08:45.933Z,993.33
2017-04-17T07:09:45.965Z,993.32
2017-04-17T07:10:45.989Z,993.27
2017-04-17T07:11:46.017Z,993.33
2017-04-17T07:12:46.047Z,993.3
2017-04-17T07:13:46.072Z,993.23
2017-04-17T07:14:46.100Z,993.25
2017-04-17T07:15:46.128Z,993.18
2017-04-17T07:16:46.153Z,993.15
2017-04-17T07:17:46.183Z,993.17
2017-04-17T07:18:46.208Z,993.16
2017-04-17T07:19:46.237Z,993.24
2017-04-17T07:20:46.266Z,993.21
2017-04-17T07:21:46.288Z,993.17
2017-04-17T07:22:46.318Z,993.23
2017-04-17T07:23:46.341Z,993.17
2017-04-17T07:24:46.373Z,993.2
2017-04-17T07:25:46.397Z,993.18
2017-04-17T07:26:46.426Z,993.17
2017-04-17T07:27:46.455Z,993.15
2017-04-17T07:28:46.475Z,993.17
2017-04-17T07:29:46.507Z,993.15
2017-04-17T07:30:46.536Z,993.14
2017-04-17T07:31:46.561Z,993.1
2017-04-17T07:32:46.591Z,993.06
2017-04-17T07:33:46.615Z,993.09
2017-04-17T07:34:46.644Z,993.04
2017-04-17T07:35:46.668Z,993
2017-04-17T07:36:46.696Z,992.98
2017-04-17T07:37:46.726Z,992.95
2017-04-17T07:38:47.002Z,992.9
2017-04-17T07:39:46.776Z,992.94
2017-04-17T07:40:46.803Z,992.99
2017-04-17T07:41:46.832Z,992.96
2017-04-17T07:42:46.862Z,992.95
2017-04-17T07:43:47.139Z,992.91
2017-04-17T07:44:46.911Z,992.92
2017-04-17T07:45:46.940Z,992.93
2017-04-17T07:46:46.968Z,992.95
2017-04-17T07:47:46.993Z,992.9
2017-04-17T07:48:47.273Z,992.93
2017-04-17T07:49:47.053Z,992.89
2017-04-17T07:50:47.075Z,992.92
2017-04-17T07:51:47.104Z,992.88
2017-04-17T07:52:47.132Z,992.84
2017-04-17T07:53:47.410Z,992.84
2017-04-17T07:54:47.187Z,992.89
2017-04-17T07:55:47.206Z,992.88
2017-04-17T07:56:47.240Z,992.87
2017-04-17T07:57:47.261Z,992.9
2017-04-17T07:58:47.542Z,992.85
2017-04-17T07:59:47.317Z,992.84
2017-04-17T08:00:47.347Z,992.86
2017-04-17T08:01:47.377Z,992.87
2017-04-17T08:02:47.401Z,992.9
2017-04-17T08:03:47.681Z,992.9
2017-04-17T08:04:47.453Z,992.92
2017-04-17T08:05:47.481Z,992.9
2017-04-17T08:06:47.511Z,992.8
2017-04-17T08:07:47.537Z,992.86
2017-04-17T08:08:47.570Z,992.85
2017-04-17T08:09:47.586Z,992.86
2017-04-17T08:10:47.640Z,992.91
2017-04-17T08:11:47.648Z,992.86
2017-04-17T08:12:47.676Z,992.95
2017-04-17T08:13:47.700Z,992.99
2017-04-17T08:14:47.727Z,992.99
2017-04-17T08:15:47.755Z,993
2017-04-17T08:16:47.780Z,993.01
2017-04-17T08:17:47.809Z,993.02
2017-04-17T08:18:47.839Z,993.03
2017-04-17T08:19:47.862Z,993.05
2017-04-17T08:20:47.887Z,993.02
2017-04-17T08:21:47.915Z,992.97
2017-04-17T08:22:47.945Z,992.97
2017-04-17T08:23:47.969Z,992.95
2017-04-17T08:24:47.998Z,992.88
2017-04-17T08:25:48.026Z,992.94
2017-04-17T08:26:48.051Z,992.92
2017-04-17T08:27:48.080Z,992.89
2017-04-17T08:28:48.105Z,992.96
2017-04-17T08:29:48.133Z,993.02
2017-04-17T08:30:48.158Z,992.99
2017-04-17T08:31:48.186Z,992.97
2017-04-17T08:32:48.212Z,993
2017-04-17T08:33:48.240Z,992.96
2017-04-17T08:34:48.265Z,992.89
2017-04-17T08:35:48.290Z,992.89
2017-04-17T08:36:48.320Z,992.94
2017-04-17T08:37:48.352Z,992.89
2017-04-17T08:38:48.370Z,992.92
2017-04-17T08:39:48.401Z,992.94
2017-04-17T08:40:48.430Z,992.91
2017-04-17T08:41:48.455Z,992.88
2017-04-17T08:42:48.478Z,992.88
2017-04-17T08:43:48.508Z,992.91
2017-04-17T08:44:48.536Z,992.8
2017-04-17T08:45:48.564Z,992.86
2017-04-17T08:46:48.590Z,992.83
2017-04-17T08:47:48.619Z,992.86
2017-04-17T08:48:48.642Z,992.81
2017-04-17T08:49:48.672Z,992.81
2017-04-17T08:50:48.701Z,992.8
2017-04-17T08:51:48.730Z,992.83
2017-04-17T08:52:48.755Z,992.78
2017-04-17T08:53:48.780Z,992.77
2017-04-17T08:54:48.808Z,992.8
2017-04-17T08:55:48.832Z,992.76
2017-04-17T08:56:48.861Z,992.79
2017-04-17T08:57:48.886Z,992.76
2017-04-17T08:58:48.918Z,992.79
2017-04-17T08:59:48.941Z,992.78
2017-04-17T09:00:48.968Z,992.77
2017-04-17T09:01:48.999Z,992.8
2017-04-17T09:02:49.023Z,992.75
2017-04-17T09:03:49.047Z,992.74
2017-04-17T09:04:49.076Z,992.75
2017-04-17T09:05:49.105Z,992.72
2017-04-17T09:06:49.125Z,992.76
2017-04-17T09:07:49.158Z,992.76
2017-04-17T09:08:49.182Z,992.71
2017-04-17T09:09:49.211Z,992.72
2017-04-17T09:10:49.238Z,992.69
2017-04-17T09:11:49.265Z,992.67
2017-04-17T09:12:49.304Z,992.74
2017-04-17T09:13:49.319Z,992.79
2017-04-17T09:14:49.343Z,992.79
2017-04-17T09:15:49.365Z,992.84
2017-04-17T09:16:49.397Z,992.82
2017-04-17T09:17:49.424Z,992.86
2017-04-17T09:18:49.457Z,992.84
2017-04-17T09:19:49.480Z,992.85
2017-04-17T09:20:49.503Z,992.85
2017-04-17T09:21:49.532Z,992.77
2017-04-17T09:22:49.561Z,992.79
2017-04-17T09:23:49.588Z,992.82
2017-04-17T09:24:49.611Z,992.72
2017-04-17T09:25:49.639Z,992.73
2017-04-17T09:26:49.669Z,992.69
2017-04-17T09:27:49.698Z,992.72
2017-04-17T09:28:49.721Z,992.68
2017-04-17T09:29:49.750Z,992.68
2017-04-17T09:30:49.775Z,992.73
2017-04-17T09:31:49.805Z,992.67
2017-04-17T09:32:49.825Z,992.65
2017-04-17T09:33:49.858Z,992.72
2017-04-17T09:34:49.884Z,992.7
2017-04-17T09:35:49.911Z,992.75
2017-04-17T09:36:49.936Z,992.73
2017-04-17T09:37:49.962Z,992.73
2017-04-17T09:38:49.994Z,992.71
2017-04-17T09:39:50.018Z,992.69
2017-04-17T09:40:50.050Z,992.66
2017-04-17T09:41:50.068Z,992.71
2017-04-17T09:42:50.094Z,992.66
2017-04-17T09:43:50.128Z,992.65
2017-04-17T09:44:50.154Z,992.63
2017-04-17T09:45:50.179Z,992.65
2017-04-17T09:46:50.386Z,992.61
2017-04-17T09:47:50.231Z,992.62
2017-04-17T09:48:50.263Z,992.67
2017-04-17T09:49:50.291Z,992.65
2017-04-17T09:50:50.316Z,992.64
2017-04-17T09:51:50.343Z,992.72
2017-04-17T09:52:50.367Z,992.69
2017-04-17T09:53:50.398Z,992.7
2017-04-17T09:54:50.422Z,992.65
2017-04-17T09:55:50.451Z,992.66
2017-04-17T09:56:50.476Z,992.7
2017-04-17T09:57:50.504Z,992.7
2017-04-17T09:58:50.526Z,992.69
2017-04-17T09:59:50.770Z,992.67
2017-04-17T10:00:50.583Z,992.67
2017-04-17T10:01:50.610Z,992.62
2017-04-17T10:02:50.636Z,992.6
2017-04-17T10:03:50.665Z,992.71
2017-04-17T10:04:51.003Z,992.66
2017-04-17T10:05:50.716Z,992.73
2017-04-17T10:06:50.750Z,992.76
2017-04-17T10:07:50.773Z,992.72
2017-04-17T10:08:50.799Z,992.72
2017-04-17T10:09:51.315Z,992.68
2017-04-17T10:10:50.852Z,992.72
2017-04-17T10:11:50.874Z,992.76
2017-04-17T10:12:50.906Z,992.74
2017-04-17T10:13:50.932Z,992.76
2017-04-17T10:14:51.212Z,992.75
2017-04-17T10:15:50.989Z,992.74
2017-04-17T10:16:51.005Z,992.75
2017-04-17T10:17:51.044Z,992.77
2017-04-17T10:18:51.067Z,992.86
2017-04-17T10:19:51.344Z,992.81
2017-04-17T10:20:51.121Z,992.84
2017-04-17T10:21:51.149Z,992.82
2017-04-17T10:22:51.175Z,992.82
2017-04-17T10:23:51.203Z,992.86
2017-04-17T10:24:51.484Z,992.84
2017-04-17T10:25:51.257Z,992.82
2017-04-17T10:26:51.284Z,992.83
2017-04-17T10:27:51.311Z,992.8
2017-04-17T10:28:51.341Z,992.78
2017-04-17T10:29:51.615Z,992.78
2017-04-17T10:30:51.393Z,992.83
2017-04-17T10:31:51.418Z,992.73
2017-04-17T10:32:51.445Z,992.71
2017-04-17T10:33:51.475Z,992.75
2017-04-17T10:34:51.751Z,992.76
2017-04-17T10:35:51.528Z,992.72
2017-04-17T10:36:51.735Z,992.68
2017-04-17T10:37:51.581Z,992.69
2017-04-17T10:38:51.601Z,992.8
2017-04-17T10:39:51.635Z,992.73
2017-04-17T10:40:51.661Z,992.73
2017-04-17T10:41:51.689Z,992.72
2017-04-17T10:42:51.715Z,992.74
2017-04-17T10:43:51.743Z,992.68
2017-04-17T10:44:51.776Z,992.66
2017-04-17T10:45:51.796Z,992.71
2017-04-17T10:46:51.824Z,992.74
2017-04-17T10:47:51.849Z,992.72
2017-04-17T10:48:51.878Z,992.65
2017-04-17T10:49:51.902Z,992.68
2017-04-17T10:50:51.949Z,992.68
2017-04-17T10:51:51.960Z,992.69
2017-04-17T10:52:51.985Z,992.63
2017-04-17T10:53:52.012Z,992.62
2017-04-17T10:54:52.038Z,992.59
2017-04-17T10:55:52.067Z,992.61
2017-04-17T10:56:52.096Z,992.55
2017-04-17T10:57:52.121Z,992.56
2017-04-17T10:58:52.150Z,992.52
2017-04-17T10:59:52.174Z,992.52
2017-04-17T11:00:52.202Z,992.6
2017-04-17T11:01:52.228Z,992.54
2017-04-17T11:02:52.256Z,992.52
2017-04-17T11:03:52.285Z,992.59
2017-04-17T11:04:52.310Z,992.58
2017-04-17T11:05:52.339Z,992.55
2017-04-17T11:06:52.371Z,992.57
2017-04-17T11:07:52.394Z,992.5
2017-04-17T11:08:52.421Z,992.43
2017-04-17T11:09:52.445Z,992.44
2017-04-17T11:10:52.474Z,992.51
2017-04-17T11:11:52.500Z,992.43
2017-04-17T11:12:52.528Z,992.46
2017-04-17T11:13:52.557Z,992.42
2017-04-17T11:14:52.585Z,992.41
2017-04-17T11:15:52.610Z,992.38
2017-04-17T11:16:52.639Z,992.36
2017-04-17T11:17:52.668Z,992.43
2017-04-17T11:18:52.693Z,992.41
2017-04-17T11:19:52.720Z,992.36
2017-04-17T11:20:52.751Z,992.38
2017-04-17T11:21:52.777Z,992.32
2017-04-17T11:22:52.803Z,992.31
2017-04-17T11:23:52.832Z,992.28
2017-04-17T11:24:52.854Z,992.33
2017-04-17T11:25:52.890Z,992.32
2017-04-17T11:26:52.913Z,992.3
2017-04-17T11:27:52.940Z,992.21
2017-04-17T11:28:52.969Z,992.24
2017-04-17T11:29:52.997Z,992.24
2017-04-17T11:30:53.018Z,992.28
2017-04-17T11:31:53.050Z,992.43
2017-04-17T11:32:53.080Z,992.7
2017-04-17T11:33:53.107Z,992.74
2017-04-17T11:34:53.131Z,992.75
2017-04-17T11:35:53.158Z,992.75
2017-04-17T11:36:53.190Z,992.76
2017-04-17T11:37:53.211Z,992.75
2017-04-17T11:38:53.243Z,992.75
2017-04-17T11:39:53.271Z,992.81
2017-04-17T11:40:53.291Z,992.84
2017-04-17T11:41:53.323Z,992.78
2017-04-17T11:42:53.354Z,992.82
2017-04-17T11:43:53.380Z,992.85
2017-04-17T11:44:53.407Z,992.8
2017-04-17T11:45:53.431Z,992.81
2017-04-17T11:46:53.462Z,992.78
2017-04-17T11:47:53.491Z,992.77
2017-04-17T11:48:53.520Z,992.72
2017-04-17T11:49:53.545Z,992.71
2017-04-17T11:50:53.573Z,992.74
2017-04-17T11:51:53.599Z,992.73
2017-04-17T11:52:53.625Z,992.79
2017-04-17T11:53:53.658Z,992.78
2017-04-17T11:54:53.683Z,992.82
2017-04-17T11:55:53.710Z,992.79
2017-04-17T11:56:53.737Z,992.8
2017-04-17T11:57:53.763Z,992.84
2017-04-17T11:58:53.793Z,992.89
2017-04-17T11:59:53.819Z,992.93
2017-04-17T12:00:53.848Z,992.93
2017-04-17T12:01:53.873Z,992.96
2017-04-17T12:02:53.902Z,992.96
2017-04-17T12:03:53.927Z,993
2017-04-17T12:04:53.954Z,993.07
2017-04-17T12:05:53.984Z,993.08
2017-04-17T12:06:54.009Z,993.09
2017-04-17T12:07:54.037Z,993.15
2017-04-17T12:08:54.067Z,993.17
2017-04-17T12:09:54.089Z,993.16
2017-04-17T12:10:54.120Z,993.25
2017-04-17T12:11:54.154Z,993.3
2017-04-17T12:12:54.173Z,993.23
2017-04-17T12:13:54.201Z,993.23
2017-04-17T12:14:54.226Z,993.23
2017-04-17T12:15:54.255Z,993.21
2017-04-17T12:16:54.284Z,993.14
2017-04-17T12:17:54.324Z,993.13
2017-04-17T12:18:54.338Z,993.12
2017-04-17T12:19:54.367Z,993.1
2017-04-17T12:20:54.391Z,993.1
2017-04-17T12:21:54.420Z,993.09
2017-04-17T12:22:54.445Z,993.13
2017-04-17T12:23:54.473Z,993.19
2017-04-17T12:24:54.499Z,993.35
2017-04-17T12:25:54.526Z,993.88
2017-04-17T12:26:54.551Z,993.39
2017-04-17T12:27:54.585Z,993.78
2017-04-17T12:28:54.610Z,993.57
2017-04-17T12:29:54.633Z,993.28
2017-04-17T12:30:54.668Z,993.41
2017-04-17T12:31:54.688Z,993.93